Cle Elum, WA (98922)

6:55 AM PDT on September 17, 2014 (GMT -0700)
Cle Elum-Roslyn High School | Change Station
CLOSE
Current Station
Personal Weather Station
Location: Cle Elum, WA
Elevation: 2107 ft
Nearby Weather Stations

Elev 2107 ft 47.20 °N, 120.97 °W | Updated 10 minutes ago

Partly Cloudy
Partly Cloudy
55.0 °F
Feels Like 55.0 °F
N
0.0
Wind Variable Wind from North

Today
High -- | Low -- °F
--% Chance of Precip.
Yesterday
High -- | Low -- °F
Precip. -- in
6:44 AM 7:11 PM
Waning Crescent, 36% visible
Pressure 29.76 in
Visibility 10.0 miles
Clouds Clear
Dew Point 48 °F
Humidity 76%
Rainfall 0.00 in
Snow Depth 0 in , 1 in , 0 in
UV 0.0 out of 12
Pollen 2.80 out of 12
Air Quality Not available.
Flu Activity Not available.
METAR KELN 171253Z AUTO 06003KT 10SM CLR 12/08 A2979 RMK AO2 SLP076 T01220078

More Conditions Fewer Conditions

Pressure 29.76 in
Visibility 10.0 miles
Clouds Clear
Dew Point 48 °F
Humidity 76%
Rainfall 0.00 in
Snow Depth 0 in , 1 in , 0 in
UV 0.0 out of 12
Pollen 2.80 out of 12
Air Quality Not available.
Flu Activity Not available.
METAR KELN 171253Z AUTO 06003KT 10SM CLR 12/08 A2979 RMK AO2 SLP076 T01220078

More Conditions Fewer Conditions

10-Day Weather Forecast

Almanac

Astronomy

Sep. 17, 2014 Rise Set
Actual Time 6:44 AM PDT 7:11 PM PDT
Civil Twilight 6:13 AM PDT 7:41 PM PDT
Nautical Twilight 5:37 AM PDT 8:18 PM PDT
Astronomical Twilight 4:59 AM PDT 8:55 PM PDT
Moon 12:31 AM PDT 3:40 PM PDT
Length of Visible Light 13h 28m
Length of Day
12h 27m
Tomorrow will be 3m 21s shorter.
Waning Crescent, 36% of the Moon is Illuminated
Today
Waning Crescent
Sep 24
New
Oct 1
First Quarter
Oct 8
Full
Oct 15
Last Quarter

Today's Extremes

State Highs State Lows

Community

WunderPhotos

Upload Photos

1,754,029 photos uploaded!

WunderBlogs® & News

Nearby

Snow Depth

Station Depth Elevation
Sourdough Gulch 0 in 4000 ft
Lyman Lake 1 in 5900 ft
Stevens Pass 0 in 4070 ft
Alpine Meadows 0 in 3500 ft
Quartz Peak 1 in 4700 ft

Earthquake Activity

City Distance Mag. Time & Date
Morton, Washington 90 miles 3.0 5:43 AM PDT
2014-09-16
Minimum magnitude displayed is 2.5.

Coastal Water Temperatures

Place Temperature
No Stations Reporting

Nearby Weather Stations